Time;durP1;ratioP1;P1;durP2;ratioP2;P2;SDS_P1;SDS_P2;PMS_P1;PMS_P2;Temp;Humidity;BMP_temperature;BMP_pressure;BME280_temperature;BME280_humidity;BME280_pressure;Samples;Min_cycle;Max_cycle;Signal;HPM_P1;HPM_P2
2022/06/23 00:00:24;;;;;;;25.97;23.53;;;20.50;99.90;;;;;;4994818;28;20872;-73
2022/06/23 00:02:51;;;;;;;24.30;22.40;;;20.50;99.90;;;;;;4994798;28;20457;-73
2022/06/23 00:05:23;;;;;;;25.57;23.57;;;20.50;99.90;;;;;;4994446;28;20454;-73
2022/06/23 00:07:52;;;;;;;25.97;23.60;;;20.50;99.90;;;;;;4994602;28;20473;-73
2022/06/23 00:10:22;;;;;;;24.90;23.00;;;20.50;99.90;;;;;;4994599;28;20450;-74
2022/06/23 00:12:49;;;;;;;25.00;22.83;;;20.50;99.90;;;;;;4994205;28;20487;-73
2022/06/23 00:15:27;;;;;;;26.40;24.10;;;20.50;99.90;;;;;;4994566;28;20813;-74
2022/06/23 00:18:02;;;;;;;26.20;23.70;;;20.40;99.90;;;;;;4994587;28;20460;-74
2022/06/23 00:20:36;;;;;;;24.97;22.77;;;20.30;99.90;;;;;;4994354;28;20964;-73
2022/06/23 00:23:10;;;;;;;26.00;23.77;;;20.20;99.90;;;;;;4994369;28;20819;-73
2022/06/23 00:25:43;;;;;;;24.90;23.03;;;20.10;99.90;;;;;;4994044;28;20451;-73
2022/06/23 00:28:17;;;;;;;24.93;23.00;;;20.10;99.90;;;;;;4994457;28;20463;-73
2022/06/23 00:30:45;;;;;;;22.13;20.37;;;20.00;99.90;;;;;;4994182;28;20442;-72
2022/06/23 00:33:18;;;;;;;23.30;21.60;;;20.10;99.90;;;;;;4994114;28;21000;-72
2022/06/23 00:35:47;;;;;;;24.00;22.20;;;20.00;99.90;;;;;;4994066;28;20454;-72
2022/06/23 00:38:20;;;;;;;26.83;24.63;;;20.00;99.90;;;;;;4993917;28;20475;-73
2022/06/23 00:40:48;;;;;;;26.17;24.13;;;20.00;99.90;;;;;;4993709;28;20485;-73
2022/06/23 00:43:14;;;;;;;24.60;22.70;;;19.90;99.90;;;;;;4994256;28;20462;-72
2022/06/23 00:45:46;;;;;;;23.60;21.70;;;19.80;99.90;;;;;;4994021;28;20797;-72
2022/06/23 00:48:18;;;;;;;23.50;21.30;;;19.80;99.90;;;;;;4994222;28;20454;-73
2022/06/23 00:50:50;;;;;;;24.60;22.37;;;19.70;99.90;;;;;;4993297;28;20932;-72
2022/06/23 00:53:24;;;;;;;25.40;23.20;;;19.60;99.90;;;;;;4993797;28;20988;-72
2022/06/23 00:55:57;;;;;;;24.80;22.37;;;19.50;99.90;;;;;;4993690;28;20872;-72
2022/06/23 04:29:58;;;;;;;30.53;28.00;;;19.50;99.90;;;;;;5276991;22;20555;-71
2022/06/23 04:32:28;;;;;;;30.50;26.30;;;19.60;99.90;;;;;;5013784;28;20498;-73
2022/06/23 04:34:58;;;;;;;26.63;24.50;;;19.80;99.90;;;;;;5013844;28;20446;-73
2022/06/23 04:37:33;;;;;;;27.77;25.53;;;19.90;99.90;;;;;;5012693;28;20473;-74
2022/06/23 04:40:14;;;;;;;27.40;24.90;;;20.00;99.90;;;;;;5013392;28;20452;-74
2022/06/23 04:42:48;;;;;;;27.50;25.37;;;20.20;99.90;;;;;;5013570;28;20464;-73
2022/06/23 04:45:50;;;;;;;28.70;26.30;;;20.20;99.90;;;;;;5013456;28;20471;-72
2022/06/23 04:48:21;;;;;;;27.47;25.20;;;20.10;99.90;;;;;;4988637;28;20592;-73
2022/06/23 04:50:54;;;;;;;26.73;24.60;;;19.90;99.90;;;;;;5013309;28;20450;-74
2022/06/23 04:53:46;;;;;;;27.90;25.50;;;19.80;99.90;;;;;;5013275;28;20477;-73
2022/06/23 04:56:24;;;;;;;26.63;24.60;;;19.70;99.90;;;;;;5005410;28;20466;-74
2022/06/23 04:58:54;;;;;;;28.40;26.40;;;19.60;99.90;;;;;;5013401;28;20816;-75
2022/06/23 05:01:26;;;;;;;28.37;26.00;;;19.50;99.90;;;;;;5013469;28;20454;-76
2022/06/23 05:03:58;;;;;;;29.10;26.90;;;19.50;99.90;;;;;;5012972;28;20457;-74
2022/06/23 05:06:38;;;;;;;29.83;27.30;;;19.40;99.90;;;;;;5013167;28;20453;-75
2022/06/23 05:09:11;;;;;;;29.33;26.97;;;19.50;99.90;;;;;;5012847;28;20939;-75
2022/06/23 05:11:45;;;;;;;26.73;24.57;;;19.90;99.90;;;;;;5013197;28;20516;-75
2022/06/23 05:14:20;;;;;;;27.13;25.03;;;20.50;99.90;;;;;;5012907;28;20493;-74
2022/06/23 05:16:51;;;;;;;26.57;24.80;;;21.20;99.90;;;;;;5013021;28;20450;-75
2022/06/23 05:19:23;;;;;;;24.67;22.93;;;21.70;99.90;;;;;;5012925;28;20962;-75
2022/06/23 05:21:54;;;;;;;24.03;22.23;;;22.10;99.90;;;;;;5012906;28;20860;-74
2022/06/23 05:24:25;;;;;;;27.10;24.63;;;22.40;99.90;;;;;;5012794;28;20917;-74
2022/06/23 05:26:56;;;;;;;24.87;23.07;;;22.80;99.90;;;;;;5010753;28;20458;-76
2022/06/23 05:29:26;;;;;;;25.90;24.07;;;23.10;99.90;;;;;;4993024;28;20650;-75
2022/06/23 05:31:58;;;;;;;24.60;23.00;;;23.00;99.90;;;;;;4993151;28;20455;-76
2022/06/23 05:34:28;;;;;;;25.10;23.30;;;23.10;99.90;;;;;;4993213;28;20483;-77
2022/06/23 05:37:04;;;;;;;26.07;24.27;;;23.20;99.90;;;;;;4991452;28;20462;-76
2022/06/23 05:39:37;;;;;;;23.47;21.87;;;23.40;99.90;;;;;;4991571;28;21153;-75
2022/06/23 05:42:13;;;;;;;23.70;22.10;;;23.50;99.90;;;;;;4992153;28;20489;-74
2022/06/23 05:44:45;;;;;;;22.70;21.00;;;23.30;99.90;;;;;;4992411;28;20449;-75
2022/06/23 05:47:14;;;;;;;21.80;20.50;;;23.40;99.90;;;;;;4992671;28;20459;-75
2022/06/23 05:49:46;;;;;;;21.77;20.40;;;23.50;99.90;;;;;;4992511;28;20788;-73
2022/06/23 05:52:53;;;;;;;22.10;20.50;;;23.50;99.90;;;;;;4992580;28;20450;-74
2022/06/23 05:55:31;;;;;;;20.97;19.57;;;23.50;99.90;;;;;;4991687;28;20466;-76
2022/06/23 05:58:02;;;;;;;19.90;18.40;;;23.60;99.90;;;;;;4991682;28;20458;-75
2022/06/23 06:00:35;;;;;;;20.03;18.30;;;24.10;99.90;;;;;;4990491;28;20454;-76
2022/06/23 06:03:15;;;;;;;20.73;19.53;;;24.40;99.90;;;;;;4992163;28;20830;-76
2022/06/23 06:05:45;;;;;;;19.97;18.77;;;24.70;99.90;;;;;;4991979;28;20466;-76
2022/06/23 06:08:17;;;;;;;21.77;20.10;;;24.40;99.90;;;;;;4992081;28;20458;-78
2022/06/23 06:10:44;;;;;;;19.03;17.83;;;24.50;99.90;;;;;;4992056;28;20455;-78
2022/06/23 06:13:15;;;;;;;20.90;19.23;;;24.80;99.90;;;;;;4992057;28;20486;-78
2022/06/23 06:15:48;;;;;;;20.23;18.67;;;25.30;99.90;;;;;;4992075;28;20462;-79
2022/06/23 06:18:24;;;;;;;20.30;18.47;;;25.40;99.90;;;;;;4992265;28;20875;-79
2022/06/23 06:20:52;;;;;;;18.57;17.17;;;25.50;99.90;;;;;;4992114;28;20815;-79
2022/06/23 06:23:26;;;;;;;17.73;16.37;;;25.50;99.90;;;;;;4991901;28;20451;-80
2022/06/23 06:25:53;;;;;;;19.27;17.77;;;25.70;99.90;;;;;;4992249;28;20467;-80
2022/06/23 06:28:22;;;;;;;17.70;16.40;;;25.90;99.90;;;;;;4991581;28;20483;-80
2022/06/23 06:30:58;;;;;;;16.90;15.63;;;25.90;99.90;;;;;;4992244;28;20451;-81
2022/06/23 06:33:37;;;;;;;19.33;17.73;;;26.10;99.90;;;;;;4991988;28;20493;-81
2022/06/23 06:36:23;;;;;;;18.53;17.23;;;26.20;99.90;;;;;;4991722;28;20956;-83
2022/06/23 06:38:49;;;;;;;19.30;17.20;;;26.20;99.90;;;;;;4992172;28;20469;-81
2022/06/23 06:41:16;;;;;;;17.90;16.90;;;26.40;99.90;;;;;;4991673;28;20454;-81
2022/06/23 06:43:43;;;;;;;19.33;17.83;;;26.60;99.90;;;;;;4991909;28;20450;-81
2022/06/23 06:46:09;;;;;;;19.20;17.97;;;26.20;99.90;;;;;;4992137;28;20454;-81
2022/06/23 06:48:43;;;;;;;18.00;16.73;;;26.20;99.90;;;;;;4991988;28;20455;-81
2022/06/23 06:51:16;;;;;;;16.40;15.47;;;26.50;99.90;;;;;;4991794;28;20450;-80
2022/06/23 06:53:46;;;;;;;17.03;15.50;;;26.80;99.90;;;;;;4991613;28;21050;-81
2022/06/23 06:56:21;;;;;;;17.27;15.87;;;27.00;99.90;;;;;;4991487;28;20460;-80
2022/06/23 06:58:55;;;;;;;18.80;17.70;;;27.30;99.90;;;;;;4991477;28;20951;-79
2022/06/23 07:01:24;;;;;;;14.97;13.97;;;27.70;99.90;;;;;;4991727;28;20481;-80
2022/06/23 07:03:54;;;;;;;17.80;16.33;;;27.60;99.90;;;;;;4991511;28;20447;-80
2022/06/23 07:06:29;;;;;;;17.23;16.03;;;27.60;99.90;;;;;;4991455;28;20534;-80
2022/06/23 07:09:02;;;;;;;16.63;15.37;;;27.40;99.90;;;;;;4991437;28;20477;-79
2022/06/23 07:11:37;;;;;;;18.07;16.33;;;27.40;99.90;;;;;;4991152;28;20542;-80
2022/06/23 07:14:11;;;;;;;17.90;16.30;;;27.60;99.90;;;;;;4990933;28;20486;-79
2022/06/23 07:16:43;;;;;;;16.73;15.60;;;27.80;99.90;;;;;;4991131;28;20465;-79
2022/06/23 07:19:22;;;;;;;17.63;16.33;;;28.10;99.90;;;;;;4991158;28;20464;-79
2022/06/23 07:21:53;;;;;;;17.37;16.10;;;28.90;99.90;;;;;;4990956;28;20458;-80
2022/06/23 07:24:25;;;;;;;17.33;16.03;;;29.50;99.90;;;;;;4991104;28;20455;-79
2022/06/23 07:26:58;;;;;;;16.90;15.50;;;29.60;99.90;;;;;;4990899;28;20453;-79
2022/06/23 07:29:34;;;;;;;16.30;15.30;;;29.20;99.90;;;;;;4990829;28;20482;-79
2022/06/23 07:32:12;;;;;;;18.37;16.63;;;29.50;99.90;;;;;;4990766;28;20466;-79
2022/06/23 07:34:45;;;;;;;16.90;15.70;;;29.70;98.90;;;;;;4991069;28;20483;-79
2022/06/23 07:37:20;;;;;;;18.50;17.00;;;29.70;99.20;;;;;;4991045;28;20450;-79
2022/06/23 07:39:51;;;;;;;17.07;15.87;;;29.60;98.90;;;;;;4990712;28;20956;-78
2022/06/23 07:42:36;;;;;;;16.30;15.10;;;29.90;97.90;;;;;;4990658;28;20451;-78
2022/06/23 07:45:07;;;;;;;16.43;15.33;;;29.90;97.80;;;;;;4990796;28;20453;-79
2022/06/23 07:47:34;;;;;;;16.27;15.17;;;29.80;98.30;;;;;;4990817;28;20455;-79
2022/06/23 07:50:04;;;;;;;16.43;15.00;;;30.30;97.00;;;;;;4990546;28;20458;-78
2022/06/23 07:52:30;;;;;;;17.53;16.00;;;30.60;96.20;;;;;;4990416;28;20450;-78
2022/06/23 07:54:57;;;;;;;17.57;16.37;;;30.70;95.40;;;;;;4990467;28;20482;-77
2022/06/23 07:57:26;;;;;;;17.30;15.80;;;30.60;95.30;;;;;;4990698;28;20458;-77
2022/06/23 07:59:58;;;;;;;16.90;15.80;;;31.10;93.50;;;;;;4992377;28;20823;-78
2022/06/23 08:02:31;;;;;;;17.03;15.90;;;31.40;93.90;;;;;;4994672;28;20462;-78
2022/06/23 08:05:06;;;;;;;16.80;15.60;;;31.40;93.70;;;;;;4994650;28;20454;-78
2022/06/23 08:07:34;;;;;;;17.40;16.00;;;31.20;93.00;;;;;;4994788;28;20963;-79
2022/06/23 08:10:05;;;;;;;18.17;16.77;;;31.50;92.70;;;;;;4994691;28;20501;-79
2022/06/23 08:12:53;;;;;;;17.40;16.17;;;31.50;92.40;;;;;;4994578;28;20462;-79
2022/06/23 08:18:13;;;;;;;17.37;16.20;;;31.80;92.40;;;;;;4995099;28;20423;-81
2022/06/23 08:20:46;;;;;;;18.13;16.73;;;31.90;92.50;;;;;;4994868;28;20457;-81
2022/06/23 08:23:15;;;;;;;17.13;15.90;;;31.80;92.30;;;;;;4994686;28;20447;-81
2022/06/23 08:25:42;;;;;;;17.70;16.40;;;32.10;91.50;;;;;;4994728;28;20477;-78
2022/06/23 08:28:09;;;;;;;17.67;16.07;;;31.90;92.30;;;;;;4993538;28;20478;-79
2022/06/23 08:30:39;;;;;;;17.30;15.93;;;32.10;91.20;;;;;;4955641;29;20457;-80
2022/06/23 08:33:07;;;;;;;17.50;16.10;;;32.30;90.90;;;;;;4955813;29;20519;-80
2022/06/23 08:35:40;;;;;;;18.07;16.70;;;32.20;90.50;;;;;;4955847;29;20455;-81
2022/06/23 08:38:11;;;;;;;16.53;15.33;;;32.00;90.10;;;;;;4956135;29;20965;-81
2022/06/23 08:40:57;;;;;;;16.60;15.67;;;32.80;89.50;;;;;;4955942;29;20543;-80
2022/06/23 08:43:32;;;;;;;15.37;14.37;;;33.00;87.60;;;;;;4955887;29;20449;-79
2022/06/23 08:46:10;;;;;;;16.77;15.67;;;33.00;87.00;;;;;;4955586;29;20456;-79
2022/06/23 08:48:42;;;;;;;16.33;15.43;;;33.70;84.90;;;;;;4956350;29;20448;-79
2022/06/23 08:51:18;;;;;;;17.50;16.07;;;34.40;82.80;;;;;;4955845;29;20958;-80
2022/06/23 08:54:01;;;;;;;17.10;15.80;;;34.10;81.20;;;;;;4955134;29;20973;-81
2022/06/23 08:56:33;;;;;;;16.97;15.77;;;33.20;84.10;;;;;;4955101;29;20919;-80
2022/06/23 08:59:09;;;;;;;17.50;16.10;;;33.30;85.10;;;;;;4955509;29;20455;-78
2022/06/23 09:01:44;;;;;;;17.73;16.63;;;33.40;84.70;;;;;;4955762;29;20512;-80
2022/06/23 09:04:18;;;;;;;17.33;16.20;;;34.30;82.60;;;;;;4955501;28;20456;-80
2022/06/23 09:06:52;;;;;;;17.07;15.97;;;35.20;79.00;;;;;;4955419;29;20663;-79
2022/06/23 09:09:32;;;;;;;17.57;16.27;;;34.60;79.80;;;;;;4955210;29;20456;-79
2022/06/23 09:12:10;;;;;;;18.40;17.10;;;34.10;80.40;;;;;;4954993;28;20922;-79
2022/06/23 09:15:00;;;;;;;16.93;15.93;;;34.70;79.60;;;;;;4955455;29;21002;-80
2022/06/23 09:17:48;;;;;;;17.60;16.60;;;34.80;78.30;;;;;;4955463;29;20939;-81
2022/06/23 09:20:32;;;;;;;17.97;16.27;;;34.90;77.80;;;;;;4955407;28;20449;-82
2022/06/23 09:23:15;;;;;;;18.33;17.03;;;35.20;76.90;;;;;;4955020;29;20460;-81
2022/06/23 09:25:54;;;;;;;18.10;16.83;;;35.30;72.70;;;;;;4955199;29;20456;-82
2022/06/23 09:28:29;;;;;;;16.83;15.73;;;36.20;71.90;;;;;;4955155;28;21095;-81
2022/06/23 09:31:18;;;;;;;18.40;17.20;;;36.10;70.40;;;;;;4955406;29;20452;-82
2022/06/23 09:33:55;;;;;;;19.13;17.77;;;35.40;71.60;;;;;;4955234;29;20520;-84
2022/06/23 09:37:01;;;;;;;17.40;16.20;;;35.20;72.10;;;;;;4955774;29;20471;-83
2022/06/23 09:39:50;;;;;;;17.97;16.30;;;34.70;72.20;;;;;;4954980;29;20456;-82
2022/06/23 09:42:39;;;;;;;17.20;16.07;;;34.40;75.10;;;;;;4954591;29;20939;-80
2022/06/23 09:45:20;;;;;;;18.03;16.90;;;34.70;74.50;;;;;;4954823;29;20452;-82
2022/06/23 09:48:13;;;;;;;17.57;16.37;;;34.40;75.50;;;;;;4954545;29;20938;-80
2022/06/23 09:50:54;;;;;;;17.97;16.77;;;34.60;73.30;;;;;;4955233;29;20459;-82
2022/06/23 09:53:49;;;;;;;17.10;16.10;;;35.40;72.00;;;;;;4955399;29;20453;-83
2022/06/23 09:56:30;;;;;;;17.90;16.53;;;36.30;68.40;;;;;;4955152;28;20458;-81
2022/06/23 09:59:21;;;;;;;17.80;16.50;;;35.20;70.80;;;;;;4954629;29;20452;-82
2022/06/23 10:01:57;;;;;;;15.90;14.93;;;34.50;73.60;;;;;;4955038;29;20457;-83
2022/06/23 10:04:34;;;;;;;17.37;16.40;;;35.10;72.40;;;;;;4955049;29;20456;-85
2022/06/23 10:07:25;;;;;;;18.57;17.30;;;36.40;69.90;;;;;;4955270;29;20460;-86
2022/06/23 10:10:03;;;;;;;19.13;17.73;;;37.30;66.40;;;;;;4953098;29;20460;-84
2022/06/23 10:12:52;;;;;;;17.00;16.10;;;37.00;63.20;;;;;;4954721;29;20455;-84
2022/06/23 10:15:43;;;;;;;17.63;16.67;;;35.60;68.10;;;;;;4954240;29;20588;-83
2022/06/23 10:18:26;;;;;;;19.60;17.90;;;35.00;71.30;;;;;;4952537;29;20460;-83
2022/06/23 10:21:08;;;;;;;18.73;17.43;;;35.30;70.10;;;;;;4955423;29;20452;-85
2022/06/23 10:23:51;;;;;;;19.40;18.20;;;36.20;67.10;;;;;;4954326;28;20459;-85
2022/06/23 10:26:30;;;;;;;18.33;17.33;;;37.40;64.40;;;;;;4954239;29;20458;-84
2022/06/23 10:29:08;;;;;;;19.77;18.37;;;37.90;61.10;;;;;;4956264;28;20484;-83
2022/06/23 10:31:49;;;;;;;18.03;16.90;;;36.80;63.10;;;;;;4954468;29;20460;-83
2022/06/23 10:34:38;;;;;;;17.67;16.57;;;36.00;64.30;;;;;;4954914;29;20481;-85
2022/06/23 10:37:38;;;;;;;18.37;17.20;;;36.50;63.70;;;;;;4955502;29;20452;-88
2022/06/23 10:40:21;;;;;;;20.30;18.53;;;37.30;62.10;;;;;;4953969;29;20449;-83
2022/06/23 10:43:00;;;;;;;18.57;17.20;;;36.90;60.70;;;;;;4953349;29;20460;-84
2022/06/23 10:45:39;;;;;;;18.87;17.57;;;36.50;62.70;;;;;;4953925;29;20825;-86
2022/06/23 10:48:43;;;;;;;17.97;16.90;;;36.80;62.20;;;;;;4954133;29;20472;-84
2022/06/23 10:51:23;;;;;;;17.03;16.33;;;37.50;60.50;;;;;;4953721;29;20483;-85
2022/06/23 10:54:11;;;;;;;18.33;17.13;;;37.50;59.00;;;;;;4954913;29;20588;-86
2022/06/23 10:56:57;;;;;;;19.20;17.50;;;38.10;57.30;;;;;;4953204;29;20457;-83
2022/06/23 10:59:50;;;;;;;16.90;15.80;;;37.00;57.70;;;;;;4953372;29;20463;-83
2022/06/23 11:02:35;;;;;;;17.00;16.00;;;36.30;59.50;;;;;;4952902;29;20730;-84
2022/06/23 11:05:30;;;;;;;18.13;17.07;;;36.90;59.50;;;;;;4956764;29;20451;-85
2022/06/23 11:08:13;;;;;;;17.30;16.17;;;38.20;56.20;;;;;;4957963;29;20820;-84
2022/06/23 11:10:55;;;;;;;17.07;15.97;;;38.80;53.40;;;;;;4953834;29;20539;-83
2022/06/23 11:13:31;;;;;;;16.70;15.77;;;36.80;52.80;;;;;;4954038;29;20798;-83
2022/06/23 11:16:05;;;;;;;17.20;16.10;;;36.70;55.50;;;;;;4953454;29;20492;-82
2022/06/23 11:18:46;;;;;;;17.60;16.00;;;37.20;52.50;;;;;;4955089;29;20459;-84
2022/06/23 11:21:32;;;;;;;17.77;16.30;;;37.40;52.30;;;;;;4953121;28;20452;-82
2022/06/23 11:24:05;;;;;;;17.10;16.10;;;37.40;52.10;;;;;;4952779;29;20471;-81
2022/06/23 11:26:49;;;;;;;17.70;16.40;;;36.20;54.10;;;;;;4952925;29;20508;-82
2022/06/23 11:29:48;;;;;;;17.47;16.40;;;37.10;53.60;;;;;;4952968;28;20540;-83
2022/06/23 11:32:28;;;;;;;16.70;15.57;;;37.40;51.30;;;;;;4942075;28;20452;-83
2022/06/23 11:35:12;;;;;;;15.30;14.50;;;37.50;51.40;;;;;;4956485;28;20483;-83
2022/06/23 11:37:52;;;;;;;17.93;16.73;;;37.30;51.90;;;;;;4956705;29;20448;-85
2022/06/23 11:40:37;;;;;;;17.67;16.57;;;37.90;50.80;;;;;;4956134;29;20464;-82
2022/06/23 11:43:18;;;;;;;18.07;16.50;;;38.50;49.40;;;;;;4955964;29;20728;-81
2022/06/23 11:45:58;;;;;;;18.40;17.20;;;39.10;48.90;;;;;;4955845;29;20466;-82
2022/06/23 11:48:47;;;;;;;17.63;16.70;;;39.20;48.80;;;;;;4956164;29;20463;-83
2022/06/23 11:51:28;;;;;;;17.70;16.40;;;39.20;48.40;;;;;;4956197;29;20492;-82
2022/06/23 11:54:10;;;;;;;17.30;16.10;;;38.70;48.70;;;;;;4956140;29;20456;-83
2022/06/23 11:56:49;;;;;;;17.57;16.30;;;38.50;50.50;;;;;;4955813;29;20444;-82
2022/06/23 11:59:31;;;;;;;17.43;16.33;;;37.70;51.30;;;;;;4955632;29;20447;-81
2022/06/23 12:01:57;;;;;;;17.90;16.90;;;37.70;52.40;;;;;;4955472;29;20452;-80
2022/06/23 12:04:51;;;;;;;17.03;15.97;;;38.50;50.70;;;;;;4955748;29;20452;-81
2022/06/23 12:07:33;;;;;;;18.50;17.40;;;39.30;48.60;;;;;;4933579;28;20833;-82
2022/06/23 12:10:08;;;;;;;19.83;18.30;;;39.70;48.20;;;;;;4955407;29;20452;-82
2022/06/23 12:12:36;;;;;;;17.60;16.40;;;40.70;46.40;;;;;;4955717;29;20463;-82
2022/06/23 12:15:04;;;;;;;18.67;17.40;;;40.50;46.40;;;;;;4955072;29;20488;-81
2022/06/23 12:17:35;;;;;;;18.60;17.23;;;39.20;48.00;;;;;;4955361;29;20499;-81
2022/06/23 12:20:08;;;;;;;19.27;18.13;;;38.50;48.60;;;;;;4956495;29;20444;-82
2022/06/23 12:22:39;;;;;;;19.23;18.10;;;37.70;50.30;;;;;;4955853;29;20507;-82
2022/06/23 12:25:18;;;;;;;19.53;17.80;;;38.00;50.00;;;;;;4955458;29;20453;-82
2022/06/23 12:27:52;;;;;;;18.20;17.10;;;39.10;48.60;;;;;;4954976;28;20707;-83
2022/06/23 12:30:20;;;;;;;19.30;17.83;;;40.10;47.60;;;;;;4990380;28;20478;-83
2022/06/23 12:32:54;;;;;;;18.67;17.27;;;39.60;47.60;;;;;;4993931;28;20462;-83
2022/06/23 12:35:27;;;;;;;19.13;17.60;;;39.70;48.00;;;;;;4994008;28;20489;-84
2022/06/23 12:38:02;;;;;;;18.37;16.90;;;39.80;47.30;;;;;;4994352;28;20459;-83
2022/06/23 12:40:37;;;;;;;18.07;17.17;;;38.40;47.50;;;;;;4993930;28;20489;-81
2022/06/23 12:43:12;;;;;;;18.77;17.57;;;38.50;48.30;;;;;;4993398;28;20462;-82
2022/06/23 12:45:56;;;;;;;18.50;17.40;;;39.20;47.30;;;;;;4993312;28;20446;-82
2022/06/23 12:49:07;;;;;;;17.77;16.67;;;39.20;46.70;;;;;;4993831;28;20450;-82
2022/06/23 12:51:43;;;;;;;17.77;16.73;;;39.50;46.80;;;;;;4993663;28;20459;-83
2022/06/23 12:54:40;;;;;;;20.10;18.10;;;39.80;46.90;;;;;;4993575;28;20513;-83
2022/06/23 12:57:22;;;;;;;17.30;16.30;;;38.40;48.80;;;;;;4959133;28;20470;-82
2022/06/23 12:59:54;;;;;;;19.50;18.40;;;38.50;48.60;;;;;;4993207;28;20450;-81
2022/06/23 13:02:30;;;;;;;19.27;18.00;;;39.00;48.10;;;;;;4993411;28;20451;-82
2022/06/23 13:05:05;;;;;;;19.07;17.60;;;39.80;48.00;;;;;;4993248;28;20454;-82
2022/06/23 13:07:37;;;;;;;18.00;16.70;;;40.00;47.80;;;;;;4993187;28;20453;-82
2022/06/23 13:10:13;;;;;;;18.77;17.57;;;39.90;47.30;;;;;;4993291;28;20450;-82
2022/06/23 13:12:49;;;;;;;17.30;16.23;;;39.60;46.70;;;;;;4993167;28;20825;-82
2022/06/23 13:15:24;;;;;;;17.77;16.70;;;39.60;46.20;;;;;;4992766;28;20494;-81
2022/06/23 13:17:57;;;;;;;16.70;15.83;;;38.90;43.90;;;;;;4993093;28;20504;-82
2022/06/23 13:20:33;;;;;;;17.60;16.50;;;38.00;43.00;;;;;;4993217;28;20478;-83
2022/06/23 13:23:08;;;;;;;18.03;16.63;;;37.80;44.10;;;;;;4992876;28;20450;-82
2022/06/23 13:25:41;;;;;;;17.57;16.47;;;37.40;45.40;;;;;;4992955;28;20450;-82
2022/06/23 13:28:29;;;;;;;18.23;16.80;;;37.00;47.10;;;;;;4992672;28;20522;-82
2022/06/23 13:31:02;;;;;;;17.20;15.97;;;37.60;47.60;;;;;;4992941;28;20803;-83
2022/06/23 13:33:34;;;;;;;18.80;17.60;;;37.70;47.50;;;;;;4993037;28;20458;-83
2022/06/23 13:36:13;;;;;;;17.63;16.40;;;37.80;47.50;;;;;;4993083;28;20486;-85
2022/06/23 13:38:45;;;;;;;18.30;17.23;;;38.50;46.10;;;;;;4994134;28;20457;-84
2022/06/23 13:41:17;;;;;;;18.23;17.17;;;39.20;45.90;;;;;;4994117;28;20455;-83
2022/06/23 13:43:53;;;;;;;19.13;17.87;;;39.80;44.80;;;;;;4993682;28;20458;-82
2022/06/23 13:46:29;;;;;;;18.00;17.03;;;38.70;46.00;;;;;;4993527;28;20462;-82
2022/06/23 13:49:04;;;;;;;18.10;17.10;;;37.80;47.40;;;;;;4993083;28;20458;-82
2022/06/23 13:51:38;;;;;;;17.67;16.53;;;38.30;46.90;;;;;;4993131;28;20447;-82
2022/06/23 13:54:08;;;;;;;18.53;17.17;;;38.40;46.50;;;;;;4993283;28;20459;-82
2022/06/23 13:56:41;;;;;;;17.33;16.43;;;38.20;46.90;;;;;;4992771;28;20487;-82
2022/06/23 13:59:13;;;;;;;19.17;18.03;;;38.40;46.90;;;;;;4993595;28;20459;-81
2022/06/23 14:01:48;;;;;;;18.53;17.43;;;38.80;47.20;;;;;;4993540;28;20458;-82
2022/06/23 14:04:20;;;;;;;18.93;17.77;;;37.80;48.20;;;;;;4992977;28;20552;-81
2022/06/23 14:06:52;;;;;;;17.93;16.93;;;36.60;49.70;;;;;;4993024;28;20443;-82
2022/06/23 14:09:26;;;;;;;20.03;18.47;;;36.70;50.00;;;;;;4993311;28;20459;-83
2022/06/23 14:11:58;;;;;;;16.93;15.93;;;36.60;49.50;;;;;;4992211;28;20455;-80
2022/06/23 14:14:31;;;;;;;19.57;18.20;;;36.40;49.80;;;;;;4992303;28;20451;-81
2022/06/23 14:17:08;;;;;;;17.27;16.10;;;36.00;49.70;;;;;;4991639;28;20498;-82
2022/06/23 14:19:42;;;;;;;18.80;17.30;;;36.30;49.30;;;;;;4991930;28;20553;-83
2022/06/23 14:22:16;;;;;;;18.67;16.93;;;36.70;49.60;;;;;;4992177;28;20949;-83
2022/06/23 14:24:51;;;;;;;18.33;17.33;;;36.50;48.20;;;;;;4991524;28;20480;-81
2022/06/23 14:27:22;;;;;;;17.83;16.70;;;34.80;49.60;;;;;;4991538;28;20470;-80
2022/06/23 14:30:03;;;;;;;19.30;17.83;;;34.20;49.90;;;;;;4991307;28;20510;-82
2022/06/23 14:32:37;;;;;;;17.67;16.40;;;33.70;51.70;;;;;;4991558;28;20462;-81
2022/06/23 14:35:11;;;;;;;18.77;17.30;;;32.90;54.00;;;;;;4991377;28;20451;-82
2022/06/23 14:37:44;;;;;;;17.57;16.47;;;33.40;52.50;;;;;;4991900;28;20450;-81
2022/06/23 14:40:14;;;;;;;18.87;17.47;;;33.60;52.60;;;;;;4991667;28;20446;-81
2022/06/23 14:42:58;;;;;;;18.17;16.80;;;33.70;52.90;;;;;;4991721;28;20466;-81
2022/06/23 14:45:40;;;;;;;17.70;16.60;;;33.60;52.30;;;;;;4991673;28;20454;-81
2022/06/23 14:48:34;;;;;;;18.23;16.67;;;33.70;53.00;;;;;;4991624;28;20449;-81
2022/06/23 14:51:07;;;;;;;17.37;16.00;;;33.60;53.60;;;;;;4991166;28;21062;-81
2022/06/23 14:53:38;;;;;;;17.70;16.40;;;33.40;53.80;;;;;;4991242;28;20487;-81
2022/06/23 14:56:16;;;;;;;20.33;18.63;;;33.40;54.00;;;;;;4990977;28;20848;-81
2022/06/23 14:58:49;;;;;;;18.10;16.90;;;34.10;53.40;;;;;;4991057;28;20462;-80
2022/06/23 15:01:24;;;;;;;16.60;15.57;;;34.20;52.70;;;;;;4991118;28;20455;-80
2022/06/23 15:03:57;;;;;;;18.07;16.60;;;34.00;51.80;;;;;;4991338;28;20490;-81
2022/06/23 15:06:37;;;;;;;16.67;15.80;;;33.90;52.80;;;;;;4991243;28;20446;-82
2022/06/23 15:09:12;;;;;;;18.27;17.13;;;33.50;53.40;;;;;;4990828;28;20459;-82
2022/06/23 15:11:45;;;;;;;18.83;17.00;;;33.40;53.50;;;;;;4991263;28;20450;-82
2022/06/23 15:14:18;;;;;;;20.33;18.53;;;33.60;52.90;;;;;;4991044;28;20455;-81
2022/06/23 15:16:52;;;;;;;18.17;16.73;;;33.20;53.90;;;;;;4990728;28;20581;-81
2022/06/23 15:19:28;;;;;;;20.13;18.83;;;32.70;55.50;;;;;;4990783;28;20454;-81
2022/06/23 15:24:53;;;;;;;17.70;16.50;;;32.20;56.80;;;;;;4990796;28;20482;-81
2022/06/23 15:27:25;;;;;;;18.93;17.37;;;32.30;57.60;;;;;;4990575;28;20566;-81
2022/06/23 15:29:57;;;;;;;18.03;16.63;;;32.40;57.50;;;;;;4990846;28;20494;-82
2022/06/23 15:32:34;;;;;;;17.13;15.90;;;32.30;57.70;;;;;;4990956;28;20541;-82
2022/06/23 15:35:12;;;;;;;17.00;15.90;;;32.00;57.60;;;;;;4990862;28;20465;-82
2022/06/23 15:37:43;;;;;;;16.00;15.10;;;31.80;57.70;;;;;;4990976;28;20447;-82
2022/06/23 15:40:21;;;;;;;18.07;16.67;;;31.40;57.90;;;;;;4991124;28;20630;-81
2022/06/23 15:42:53;;;;;;;17.03;15.73;;;31.30;58.60;;;;;;4990623;28;20458;-81
2022/06/23 15:45:37;;;;;;;17.40;16.50;;;31.20;61.10;;;;;;4990561;28;20938;-81
2022/06/23 15:48:11;;;;;;;18.17;16.87;;;31.20;62.20;;;;;;4990706;28;20454;-81
2022/06/23 15:50:46;;;;;;;18.47;16.73;;;31.20;62.20;;;;;;4990935;28;20454;-81
2022/06/23 15:53:32;;;;;;;16.80;15.57;;;31.30;62.50;;;;;;4990654;28;20454;-82
2022/06/23 15:56:04;;;;;;;16.67;15.57;;;31.40;63.20;;;;;;4990477;28;20490;-81
2022/06/23 15:58:40;;;;;;;17.07;15.97;;;31.60;62.40;;;;;;4990410;28;20447;-80
2022/06/23 16:01:16;;;;;;;16.23;15.30;;;31.60;62.40;;;;;;4990480;28;20454;-80
2022/06/23 16:03:48;;;;;;;17.07;16.03;;;31.40;62.50;;;;;;4990456;28;20478;-80
2022/06/23 16:06:34;;;;;;;16.33;15.53;;;31.40;63.50;;;;;;4990433;28;20451;-81
2022/06/23 16:09:05;;;;;;;16.47;15.57;;;31.30;63.90;;;;;;4990405;28;20450;-81
2022/06/23 16:11:43;;;;;;;16.97;15.93;;;31.40;63.10;;;;;;4990271;28;20501;-80
2022/06/23 16:14:12;;;;;;;17.33;15.80;;;31.60;63.00;;;;;;4990657;28;20457;-80
2022/06/23 16:16:42;;;;;;;16.73;15.63;;;31.80;62.70;;;;;;4990405;28;20493;-81
2022/06/23 16:19:22;;;;;;;16.80;15.50;;;31.50;61.30;;;;;;4990738;28;20455;-81
2022/06/23 16:21:59;;;;;;;19.70;18.00;;;31.30;61.60;;;;;;4993427;28;20451;-81
2022/06/23 16:24:32;;;;;;;15.80;14.80;;;31.00;62.70;;;;;;4994180;28;20446;-81
2022/06/23 16:27:05;;;;;;;17.87;16.33;;;30.90;62.90;;;;;;4993933;28;20497;-80
2022/06/23 16:29:41;;;;;;;17.10;15.80;;;31.00;64.20;;;;;;4994928;28;20479;-81
2022/06/23 16:32:12;;;;;;;17.20;15.93;;;30.90;64.40;;;;;;4994784;28;20475;-81
2022/06/23 16:34:48;;;;;;;16.20;15.00;;;30.80;65.00;;;;;;4994320;28;20450;-81
2022/06/23 16:37:21;;;;;;;16.63;15.33;;;30.70;65.30;;;;;;4993992;28;21003;-81
2022/06/23 16:39:53;;;;;;;15.20;14.17;;;30.70;63.90;;;;;;4994399;28;20465;-81
2022/06/23 16:42:39;;;;;;;14.67;13.67;;;30.80;64.00;;;;;;4994834;28;20853;-80
2022/06/23 16:45:17;;;;;;;15.67;14.47;;;30.70;62.90;;;;;;4994162;28;20458;-80
2022/06/23 16:47:51;;;;;;;16.10;14.90;;;30.70;64.20;;;;;;4993901;28;20450;-80
2022/06/23 16:50:28;;;;;;;15.77;15.00;;;30.60;64.40;;;;;;4993959;28;20450;-81